Greenacres, Florida
Current Conditions -  °F | °C
As of 5:53 PM on Friday 28 Nov 2014 (Local Time) from KPBI Reporting Station
Broken Clouds Broken Clouds  
Wind Chill: 63°   Ceiling: 25000
Heat Index: 63°   Visibility: 10mi
Dew Point: 52°   Wind: 14mph
Humidity: 67%   Direction: 330°NNW
Pressure: 30.18"   Gusts: NA
Location:  26.6599°N, 80.1276°W
Report Text: KPBI 282253Z 33012KT 10SM FEW038 SCT050 BKN250 17/11 A3018 RMK AO2 SLP219 T01720111
Loading
Personal Weather Stations






























Interactive Weather Map New forecast layout! Learn more

10-Day Weather Forecast

Advertisements
Track Severe Weather on mobile